Time,TemperatureF,DewpointF,PressureIn,WindDirection,WindDirectionDegrees,WindSpeedMPH,WindSpeedGustMPH,Humidity,HourlyPrecipIn,Conditions,Clouds,dailyrainin,SoftwareType,DateUTC
2013-04-12 00:01:00,74.0,16.0,29.69,East,82,12.0,12.0,11,0.00,,,0.00,,2013-04-12 07:01:00,
2013-04-12 00:31:00,74.0,16.0,29.69,East,79,12.0,12.0,11,0.00,,,0.00,,2013-04-12 07:31:00,
2013-04-12 00:52:00,74.0,16.0,29.70,ENE,68,13.0,13.0,11,0.00,,,0.00,,2013-04-12 07:52:00,
2013-04-12 01:02:00,74.0,16.0,29.69,NE,53,10.0,10.0,11,0.00,,,0.00,,2013-04-12 08:02:00,
2013-04-12 01:31:00,75.0,15.0,29.70,ENE,70,8.0,10.0,10,0.00,,,0.00,,2013-04-12 08:31:00,
2013-04-12 01:52:00,75.0,12.0,29.69,ENE,59,9.0,9.0,9,0.00,,,0.00,,2013-04-12 08:52:00,
2013-04-12 02:01:00,76.0,13.0,29.69,NE,41,6.0,6.0,9,0.00,,,0.00,,2013-04-12 09:01:00,
2013-04-12 02:21:00,76.0,13.0,29.69,North,4,5.0,7.0,9,0.00,,,0.00,,2013-04-12 09:21:00,
2013-04-12 02:32:00,75.0,15.0,29.70,ENE,70,8.0,10.0,10,0.00,,,0.00,,2013-04-12 09:32:00,
2013-04-12 02:52:00,73.0,19.0,29.68,North,349,4.0,4.0,13,0.00,,,0.00,,2013-04-12 09:52:00,
2013-04-12 03:02:00,72.0,18.0,29.68,North,359,2.0,3.0,13,0.00,,,0.00,,2013-04-12 10:02:00,
2013-04-12 03:12:00,71.0,18.0,29.67,North,359,0.0,0.0,13,0.00,,,0.00,,2013-04-12 10:12:00,
2013-04-12 03:22:00,71.0,18.0,29.67,North,359,0.0,0.0,13,0.00,,,0.00,,2013-04-12 10:22:00,
2013-04-12 03:33:00,69.0,19.0,29.67,North,359,0.0,0.0,15,0.00,,,0.00,,2013-04-12 10:33:00,
2013-04-12 03:42:00,69.0,19.0,29.67,North,359,0.0,0.0,15,0.00,,,0.00,,2013-04-12 10:42:00,
2013-04-12 04:02:00,66.0,23.0,29.68,WSW,240,0.0,0.0,19,0.00,,,0.00,,2013-04-12 11:02:00,
2013-04-12 04:21:00,67.0,19.0,29.68,NNW,342,0.0,0.0,16,0.00,,,0.00,,2013-04-12 11:21:00,
2013-04-12 04:32:00,67.0,21.0,29.68,NNW,342,0.0,0.0,17,0.00,,,0.00,,2013-04-12 11:32:00,
2013-04-12 04:52:00,65.0,22.0,29.68,NNW,342,0.0,0.0,19,0.00,,,0.00,,2013-04-12 11:52:00,
2013-04-12 05:01:00,64.0,21.0,29.68,NNW,329,0.0,0.0,19,0.00,,,0.00,,2013-04-12 12:01:00,
2013-04-12 05:12:00,64.0,21.0,29.68,NNW,329,0.0,0.0,19,0.00,,,0.00,,2013-04-12 12:12:00,
2013-04-12 05:21:00,64.0,23.0,29.68,NNW,329,0.0,0.0,21,0.00,,,0.00,,2013-04-12 12:21:00,
2013-04-12 05:31:00,62.0,23.0,29.68,NNW,329,0.0,0.0,22,0.00,,,0.00,,2013-04-12 12:31:00,
2013-04-12 05:42:00,62.0,23.0,29.68,NNW,329,0.0,0.0,22,0.00,,,0.00,,2013-04-12 12:42:00,
2013-04-12 05:52:00,62.0,25.0,29.69,West,274,0.0,1.0,24,0.00,,,0.00,,2013-04-12 12:52:00,
2013-04-12 06:02:00,61.0,26.0,29.69,SW,222,3.0,4.0,26,0.00,,,0.00,,2013-04-12 13:02:00,
2013-04-12 06:11:00,61.0,26.0,29.69,SW,222,3.0,4.0,26,0.00,,,0.00,,2013-04-12 13:11:00,
2013-04-12 06:21:00,61.0,25.0,29.69,NE,44,0.0,2.0,25,0.00,,,0.00,,2013-04-12 13:21:00,
2013-04-12 06:31:00,61.0,25.0,29.70,NE,37,0.0,0.0,25,0.00,,,0.00,,2013-04-12 13:31:00,
2013-04-12 06:42:00,61.0,25.0,29.70,NE,37,0.0,0.0,25,0.00,,,0.00,,2013-04-12 13:42:00,
2013-04-12 06:52:00,60.0,24.0,29.70,NE,37,0.0,0.0,25,0.00,,,0.00,,2013-04-12 13:52:00,
2013-04-12 07:02:00,60.0,25.0,29.70,NE,37,0.0,0.0,26,0.00,,,0.00,,2013-04-12 14:02:00,
2013-04-12 07:11:00,60.0,25.0,29.70,NE,37,0.0,0.0,26,0.00,,,0.00,,2013-04-12 14:11:00,
2013-04-12 07:21:00,61.0,27.0,29.71,NE,37,0.0,0.0,27,0.00,,,0.00,,2013-04-12 14:21:00,
2013-04-12 07:31:00,63.0,27.0,29.72,NE,37,0.0,0.0,25,0.00,,,0.00,,2013-04-12 14:31:00,
2013-04-12 07:41:00,63.0,27.0,29.72,NE,37,0.0,0.0,25,0.00,,,0.00,,2013-04-12 14:41:00,
2013-04-12 07:53:00,67.0,22.0,29.72,North,1,4.0,5.0,18,0.00,,,0.00,,2013-04-12 14:53:00,
2013-04-12 08:01:00,70.0,23.0,29.72,NNE,14,0.0,0.0,17,0.00,,,0.00,,2013-04-12 15:01:00,
2013-04-12 08:11:00,70.0,23.0,29.72,NNE,14,0.0,0.0,17,0.00,,,0.00,,2013-04-12 15:11:00,
2013-04-12 08:32:00,72.0,18.0,29.72,NNW,328,7.0,7.0,13,0.00,,,0.00,,2013-04-12 15:32:00,
2013-04-12 09:03:00,76.0,18.0,29.73,North,7,5.0,7.0,11,0.00,,,0.00,,2013-04-12 16:03:00,
2013-04-12 09:22:00,78.0,17.0,29.73,NNE,17,2.0,2.0,10,0.00,,,0.00,,2013-04-12 16:22:00,
2013-04-12 09:32:00,80.0,13.0,29.74,NNE,13,5.0,5.0,8,0.00,,,0.00,,2013-04-12 16:32:00,
2013-04-12 09:53:00,80.0,13.0,29.74,North,353,5.0,7.0,8,0.00,,,0.00,,2013-04-12 16:53:00,
2013-04-12 10:02:00,81.0,14.0,29.75,NE,41,5.0,5.0,8,0.00,,,0.00,,2013-04-12 17:02:00,
2013-04-12 10:22:00,83.0,16.0,29.76,WNW,301,2.0,0.0,8,0.00,,,0.00,,2013-04-12 17:22:00,
2013-04-12 10:32:00,86.0,15.0,29.76,South,180,5.0,5.0,7,0.00,,,0.00,,2013-04-12 17:32:00,
2013-04-12 11:02:00,83.0,16.0,29.77,NNE,25,3.0,0.0,8,0.00,,,0.00,,2013-04-12 18:02:00,
2013-04-12 11:24:00,86.0,15.0,29.77,ENE,73,0.0,0.0,7,0.00,,,0.00,,2013-04-12 18:24:00,
2013-04-12 12:31:00,86.0,15.0,29.76,SSW,198,5.0,8.0,7,0.00,,,0.00,,2013-04-12 19:31:00,
2013-04-12 12:52:00,87.0,12.0,29.76,South,191,2.0,2.0,6,0.00,,,0.00,,2013-04-12 19:52:00,
2013-04-12 13:01:00,90.0,14.0,29.76,WNW,301,3.0,0.0,6,0.00,,,0.00,,2013-04-12 20:01:00,
2013-04-12 13:21:00,90.0,14.0,29.75,SW,229,5.0,5.0,6,0.00,,,0.00,,2013-04-12 20:21:00,
2013-04-12 13:32:00,92.0,16.0,29.75,WNW,283,1.0,1.0,6,0.00,,,0.00,,2013-04-12 20:32:00,
2013-04-12 13:52:00,93.0,16.0,29.75,SE,138,0.0,0.0,6,0.00,,,0.00,,2013-04-12 20:52:00,
2013-04-12 14:01:00,91.0,15.0,29.74,NNW,336,4.0,5.0,6,0.00,,,0.00,,2013-04-12 21:01:00,
2013-04-12 14:21:00,91.0,15.0,29.74,West,266,9.0,9.0,6,0.00,,,0.00,,2013-04-12 21:21:00,
2013-04-12 14:32:00,92.0,16.0,29.74,NW,308,5.0,5.0,6,0.00,,,0.00,,2013-04-12 21:32:00,
2013-04-12 14:52:00,93.0,16.0,29.73,SSW,208,1.0,2.0,6,0.00,,,0.00,,2013-04-12 21:52:00,
2013-04-12 15:02:00,93.0,16.0,29.73,West,264,4.0,5.0,6,0.00,,,0.00,,2013-04-12 22:02:00,
2013-04-12 15:22:00,93.0,16.0,29.72,SSW,208,5.0,5.0,6,0.00,,,0.00,,2013-04-12 22:22:00,
2013-04-12 15:32:00,93.0,16.0,29.72,WSW,240,2.0,7.0,6,0.00,,,0.00,,2013-04-12 22:32:00,
2013-04-12 15:52:00,90.0,14.0,29.72,West,263,2.0,0.0,6,0.00,,,0.00,,2013-04-12 22:52:00,
2013-04-12 16:03:00,92.0,16.0,29.72,West,270,8.0,9.0,6,0.00,,,0.00,,2013-04-12 23:03:00,
2013-04-12 16:12:00,91.0,18.0,29.71,South,180,7.0,7.0,7,0.00,,,0.00,,2013-04-12 23:12:00,
2013-04-12 16:21:00,91.0,18.0,29.71,South,180,7.0,7.0,7,0.00,,,0.00,,2013-04-12 23:21:00,
2013-04-12 16:31:00,91.0,18.0,29.70,SSE,149,8.0,8.0,7,0.00,,,0.00,,2013-04-12 23:31:00,
2013-04-12 16:42:00,91.0,18.0,29.70,SSE,149,8.0,8.0,7,0.00,,,0.00,,2013-04-12 23:42:00,
2013-04-12 16:52:00,91.0,18.0,29.71,SSW,197,5.0,12.0,7,0.00,,,0.00,,2013-04-12 23:52:00,
2013-04-12 17:01:00,90.0,18.0,29.70,SSW,204,7.0,7.0,7,0.00,,,0.00,,2013-04-13 00:01:00,
2013-04-12 17:21:00,90.0,18.0,29.70,North,359,6.0,6.0,7,0.00,,,0.00,,2013-04-13 00:21:00,
2013-04-12 17:32:00,89.0,20.0,29.70,WSW,255,7.0,7.0,8,0.00,,,0.00,,2013-04-13 00:32:00,
2013-04-12 17:41:00,89.0,20.0,29.70,WSW,255,7.0,7.0,8,0.00,,,0.00,,2013-04-13 00:41:00,
2013-04-12 17:52:00,88.0,19.0,29.70,SW,229,5.0,7.0,8,0.00,,,0.00,,2013-04-13 00:52:00,
2013-04-12 18:11:00,88.0,22.0,29.70,SSW,211,6.0,6.0,9,0.00,,,0.00,,2013-04-13 01:11:00,
2013-04-12 18:21:00,87.0,21.0,29.70,West,260,4.0,4.0,9,0.00,,,0.00,,2013-04-13 01:21:00,
2013-04-12 18:32:00,85.0,25.0,29.70,SSW,200,4.0,7.0,11,0.00,,,0.00,,2013-04-13 01:32:00,
2013-04-12 18:52:00,85.0,27.0,29.70,WSW,253,7.0,7.0,12,0.00,,,0.00,,2013-04-13 01:52:00,
2013-04-12 19:01:00,83.0,27.0,29.71,West,273,4.0,4.0,13,0.00,,,0.00,,2013-04-13 02:01:00,
2013-04-12 19:22:00,82.0,28.0,29.71,SW,215,4.0,4.0,14,0.00,,,0.00,,2013-04-13 02:22:00,
2013-04-12 19:32:00,81.0,29.0,29.72,South,179,3.0,3.0,15,0.00,,,0.00,,2013-04-13 02:32:00,
2013-04-12 19:52:00,80.0,30.0,29.73,WSW,238,3.0,4.0,16,0.00,,,0.00,,2013-04-13 02:52:00,
2013-04-12 20:01:00,79.0,30.0,29.73,WSW,255,1.0,0.0,17,0.00,,,0.00,,2013-04-13 03:01:00,
2013-04-12 20:11:00,79.0,30.0,29.73,WSW,255,1.0,0.0,17,0.00,,,0.00,,2013-04-13 03:11:00,
2013-04-12 20:22:00,78.0,32.0,29.74,East,93,1.0,0.0,19,0.00,,,0.00,,2013-04-13 03:22:00,
2013-04-12 20:32:00,77.0,33.0,29.75,ESE,108,1.0,1.0,20,0.00,,,0.00,,2013-04-13 03:32:00,
2013-04-12 20:42:00,77.0,33.0,29.75,ESE,108,1.0,1.0,20,0.00,,,0.00,,2013-04-13 03:42:00,
2013-04-12 20:53:00,76.0,33.0,29.75,East,96,0.0,0.0,21,0.00,,,0.00,,2013-04-13 03:53:00,
2013-04-12 21:02:00,76.0,36.0,29.75,East,94,4.0,4.0,23,0.00,,,0.00,,2013-04-13 04:02:00,
2013-04-12 21:12:00,76.0,36.0,29.75,East,94,4.0,4.0,23,0.00,,,0.00,,2013-04-13 04:12:00,
2013-04-12 21:22:00,76.0,34.0,29.76,East,82,1.0,0.0,22,0.00,,,0.00,,2013-04-13 04:22:00,
2013-04-12 21:32:00,76.0,33.0,29.76,East,90,0.0,0.0,21,0.00,,,0.00,,2013-04-13 04:32:00,
2013-04-12 21:42:00,76.0,33.0,29.76,East,90,0.0,0.0,21,0.00,,,0.00,,2013-04-13 04:42:00,
2013-04-12 21:53:00,75.0,30.0,29.77,East,90,0.0,0.0,19,0.00,,,0.00,,2013-04-13 04:53:00,
2013-04-12 22:02:00,74.0,28.0,29.78,East,90,0.0,0.0,18,0.00,,,0.00,,2013-04-13 05:02:00,
2013-04-12 22:22:00,75.0,29.0,29.78,East,90,0.0,0.0,18,0.00,,,0.00,,2013-04-13 05:22:00,
2013-04-12 22:31:00,73.0,27.0,29.78,NE,56,1.0,2.0,18,0.00,,,0.00,,2013-04-13 05:31:00,
2013-04-12 22:52:00,74.0,29.0,29.78,ENE,69,3.0,3.0,19,0.00,,,0.00,,2013-04-13 05:52:00,
2013-04-12 23:01:00,74.0,33.0,29.78,NNE,24,0.0,0.0,22,0.00,,,0.00,,2013-04-13 06:01:00,
2013-04-12 23:11:00,74.0,33.0,29.78,NNE,24,0.0,0.0,22,0.00,,,0.00,,2013-04-13 06:11:00,
2013-04-12 23:21:00,73.0,34.0,29.77,NE,48,1.0,2.0,24,0.00,,,0.00,,2013-04-13 06:21:00,
2013-04-12 23:32:00,73.0,35.0,29.77,NE,42,0.0,0.0,25,0.00,,,0.00,,2013-04-13 06:32:00,
2013-04-12 23:42:00,73.0,35.0,29.77,NE,42,0.0,0.0,25,0.00,,,0.00,,2013-04-13 06:42:00,
2013-04-12 23:53:00,72.0,35.0,29.77,NE,42,0.0,0.0,26,0.00,,,0.00,,2013-04-13 06:53:00,